createdAt,value
2018-04-11T00:00:07.031Z,12.41
2018-04-11T00:01:13.239Z,12.41
2018-04-11T00:02:19.471Z,12.41
2018-04-11T00:03:25.805Z,12.43
2018-04-11T00:04:32.066Z,12.47
2018-04-11T00:05:44.932Z,12.49
2018-04-11T00:06:53.400Z,12.55
2018-04-11T00:07:59.408Z,12.64
2018-04-11T00:09:04.918Z,12.74
2018-04-11T00:10:10.923Z,12.71
2018-04-11T00:11:16.899Z,12.60
2018-04-11T00:12:23.156Z,12.58
2018-04-11T00:13:29.407Z,12.60
2018-04-11T00:14:35.322Z,12.66
2018-04-11T00:15:41.533Z,12.73
2018-04-11T00:16:47.735Z,12.67
2018-04-11T00:17:53.995Z,12.58
2018-04-11T00:19:00.302Z,12.62
2018-04-11T00:20:06.576Z,12.64
2018-04-11T00:21:14.336Z,12.56
2018-04-11T00:22:22.015Z,12.60
2018-04-11T00:23:29.240Z,12.58
2018-04-11T00:24:35.543Z,12.60
2018-04-11T00:25:41.832Z,12.58
2018-04-11T00:26:48.149Z,12.53
2018-04-11T00:27:54.583Z,12.55
2018-04-11T00:29:01.219Z,12.52
2018-04-11T00:30:07.481Z,12.42
2018-04-11T00:31:13.671Z,12.40
2018-04-11T00:32:19.897Z,12.35
2018-04-11T00:33:26.251Z,12.44
2018-04-11T00:34:32.404Z,12.47
2018-04-11T00:35:38.647Z,12.43
2018-04-11T00:36:44.966Z,12.34
2018-04-11T00:37:53.803Z,12.37
2018-04-11T00:38:59.988Z,12.32
2018-04-11T00:40:06.359Z,12.26
2018-04-11T00:41:12.619Z,12.19
2018-04-11T00:42:18.909Z,12.12
2018-04-11T00:43:25.168Z,12.06
2018-04-11T00:44:31.391Z,12.02
2018-04-11T00:45:37.560Z,12.03
2018-04-11T00:46:43.787Z,12.16
2018-04-11T00:47:55.604Z,12.27
2018-04-11T00:49:01.932Z,12.36
2018-04-11T00:50:08.176Z,12.37
2018-04-11T00:51:14.459Z,12.35
2018-04-11T00:52:20.793Z,12.35
2018-04-11T00:53:28.650Z,12.29
2018-04-11T00:54:34.928Z,12.16
2018-04-11T00:55:41.178Z,12.14
2018-04-11T00:56:47.501Z,12.03
2018-04-11T00:57:53.431Z,12.01
2018-04-11T00:58:59.651Z,12.02
2018-04-11T01:00:05.567Z,12.02
2018-04-11T01:01:11.791Z,11.96
2018-04-11T01:02:18.024Z,11.98
2018-04-11T01:03:24.356Z,11.87
2018-04-11T01:04:30.615Z,11.82
2018-04-11T01:05:36.837Z,11.78
2018-04-11T01:06:43.060Z,11.74
2018-04-11T01:07:49.347Z,11.82
2018-04-11T01:08:55.580Z,11.88
2018-04-11T01:10:01.555Z,11.92
2018-04-11T01:11:07.449Z,12.01
2018-04-11T01:12:13.676Z,12.07
2018-04-11T01:13:20.204Z,12.04
2018-04-11T01:14:26.365Z,11.98
2018-04-11T01:15:32.639Z,11.96
2018-04-11T01:16:39.580Z,11.96
2018-04-11T01:17:45.863Z,12.01
2018-04-11T01:18:52.091Z,12.08
2018-04-11T01:19:58.409Z,12.05
2018-04-11T01:21:04.679Z,12.05
2018-04-11T01:22:10.675Z,12.05
2018-04-11T01:23:17.499Z,12.05
2018-04-11T01:24:26.515Z,12.00
2018-04-11T01:25:32.837Z,12.00
2018-04-11T01:26:39.199Z,11.91
2018-04-11T01:27:45.417Z,11.94
2018-04-11T01:28:55.028Z,11.96
2018-04-11T01:30:01.188Z,12.03
2018-04-11T01:31:07.110Z,11.99
2018-04-11T01:32:13.298Z,11.98
2018-04-11T01:33:19.539Z,11.86
2018-04-11T01:34:25.751Z,11.80
2018-04-11T01:35:31.943Z,11.70
2018-04-11T01:36:38.180Z,11.54
2018-04-11T01:37:44.344Z,11.43
2018-04-11T01:38:50.869Z,11.31
2018-04-11T01:39:56.883Z,11.25
2018-04-11T01:41:03.235Z,11.19
2018-04-11T01:42:09.521Z,11.12
2018-04-11T01:43:15.482Z,11.05
2018-04-11T01:44:23.997Z,11.11
2018-04-11T01:45:32.694Z,11.18
2018-04-11T01:46:38.950Z,11.33
2018-04-11T01:47:45.139Z,11.41
2018-04-11T01:48:51.386Z,11.45
2018-04-11T01:50:02.719Z,11.53
2018-04-11T01:51:11.396Z,11.54
2018-04-11T01:52:18.810Z,11.63
2018-04-11T01:53:25.015Z,11.63
2018-04-11T01:54:31.044Z,11.61
2018-04-11T01:55:46.623Z,11.67
2018-04-11T01:56:52.843Z,11.71
2018-04-11T01:57:59.091Z,11.72
2018-04-11T01:59:05.089Z,11.70
2018-04-11T02:00:11.400Z,11.65
2018-04-11T02:01:17.592Z,11.66
2018-04-11T02:02:23.825Z,11.71
2018-04-11T02:03:33.995Z,11.78
2018-04-11T02:04:39.970Z,11.76
2018-04-11T02:05:46.239Z,11.71
2018-04-11T02:06:52.624Z,11.69
2018-04-11T02:07:58.834Z,11.67
2018-04-11T02:09:03.896Z,11.67
2018-04-11T02:10:09.934Z,11.68
2018-04-11T02:11:15.880Z,11.71
2018-04-11T02:12:22.128Z,11.71
2018-04-11T02:13:28.137Z,11.71
2018-04-11T02:14:34.205Z,11.70
2018-04-11T02:15:41.388Z,11.68
2018-04-11T02:16:47.541Z,11.67
2018-04-11T02:17:53.592Z,11.62
2018-04-11T02:19:00.596Z,11.57
2018-04-11T02:20:06.844Z,11.54
2018-04-11T02:21:13.454Z,11.53
2018-04-11T02:22:19.868Z,11.49
2018-04-11T02:23:26.182Z,11.53
2018-04-11T02:24:32.399Z,11.56
2018-04-11T02:25:38.664Z,11.54
2018-04-11T02:26:45.149Z,11.54
2018-04-11T02:27:52.053Z,11.49
2018-04-11T02:28:58.261Z,11.43
2018-04-11T02:30:04.253Z,11.43
2018-04-11T02:31:12.848Z,11.34
2018-04-11T02:32:20.222Z,11.31
2018-04-11T02:33:26.464Z,11.25
2018-04-11T02:34:32.432Z,11.25
2018-04-11T02:35:38.687Z,11.19
2018-04-11T02:36:44.918Z,11.23
2018-04-11T02:37:51.955Z,11.30
2018-04-11T02:38:58.719Z,11.36
2018-04-11T02:40:04.278Z,11.34
2018-04-11T02:41:10.558Z,11.35
2018-04-11T02:42:16.864Z,11.29
2018-04-11T02:43:23.055Z,11.27
2018-04-11T02:44:29.393Z,11.35
2018-04-11T02:45:35.727Z,11.45
2018-04-11T02:46:42.962Z,11.48
2018-04-11T02:47:50.711Z,11.43
2018-04-11T02:48:58.215Z,11.42
2018-04-11T02:50:04.115Z,11.44
2018-04-11T02:51:10.351Z,11.46
2018-04-11T02:52:17.531Z,11.48
2018-04-11T02:53:24.343Z,11.58
2018-04-11T02:54:30.615Z,11.59
2018-04-11T02:55:36.944Z,11.60
2018-04-11T02:56:43.230Z,11.60
2018-04-11T02:57:49.425Z,11.59
2018-04-11T02:58:55.627Z,11.61
2018-04-11T03:00:02.559Z,11.60
2018-04-11T03:01:08.811Z,11.60
2018-04-11T03:02:15.087Z,11.62
2018-04-11T03:03:23.311Z,11.62
2018-04-11T03:04:29.541Z,11.62
2018-04-11T03:05:35.751Z,11.62
2018-04-11T03:06:42.269Z,11.61
2018-04-11T03:07:48.561Z,11.57
2018-04-11T03:08:54.883Z,11.59
2018-04-11T03:10:01.150Z,11.59
2018-04-11T03:11:07.470Z,11.57
2018-04-11T03:12:13.783Z,11.52
2018-04-11T03:13:19.956Z,11.55
2018-04-11T03:14:26.283Z,11.56
2018-04-11T03:15:32.621Z,11.55
2018-04-11T03:16:38.897Z,11.54
2018-04-11T03:17:45.188Z,11.49
2018-04-11T03:18:51.363Z,11.39
2018-04-11T03:19:57.700Z,11.33
2018-04-11T03:21:04.114Z,11.27
2018-04-11T03:22:10.099Z,11.27
2018-04-11T03:23:16.435Z,11.24
2018-04-11T03:24:22.651Z,11.21
2018-04-11T03:25:28.961Z,11.25
2018-04-11T03:26:35.169Z,11.31
2018-04-11T03:27:41.513Z,11.34
2018-04-11T03:28:47.799Z,11.40
2018-04-11T03:29:54.023Z,11.34
2018-04-11T03:30:59.785Z,11.20
2018-04-11T03:32:07.262Z,11.15
2018-04-11T03:33:13.544Z,10.98
2018-04-11T03:34:19.540Z,10.95
2018-04-11T03:35:25.870Z,11.01
2018-04-11T03:36:32.066Z,11.09
2018-04-11T03:37:38.307Z,11.07
2018-04-11T03:38:46.770Z,11.07
2018-04-11T03:39:52.931Z,11.10
2018-04-11T03:40:59.188Z,11.17
2018-04-11T03:42:05.793Z,11.15
2018-04-11T03:43:12.002Z,11.15
2018-04-11T03:44:18.210Z,11.21
2018-04-11T03:45:24.529Z,11.22
2018-04-11T03:46:30.730Z,11.28
2018-04-11T03:47:36.949Z,11.36
2018-04-11T03:48:43.138Z,11.40
2018-04-11T03:49:49.684Z,11.39
2018-04-11T03:50:59.734Z,11.40
2018-04-11T03:52:05.924Z,11.42
2018-04-11T03:53:12.171Z,11.42
2018-04-11T03:54:20.382Z,11.42
2018-04-11T03:55:27.524Z,11.41
2018-04-11T03:56:33.818Z,11.46
2018-04-11T03:57:39.917Z,11.46
2018-04-11T03:58:46.180Z,11.50
2018-04-11T03:59:52.432Z,11.54
2018-04-11T04:00:58.684Z,11.55
2018-04-11T04:02:04.931Z,11.49
2018-04-11T04:03:11.307Z,11.55
2018-04-11T04:04:17.460Z,11.53
2018-04-11T04:05:23.759Z,11.56
2018-04-11T04:06:29.948Z,11.60
2018-04-11T04:07:36.859Z,11.59
2018-04-11T04:08:44.518Z,11.58
2018-04-11T04:09:51.702Z,11.61
2018-04-11T04:10:58.932Z,11.66
2018-04-11T04:12:05.719Z,11.60
2018-04-11T04:13:12.070Z,11.52
2018-04-11T04:14:29.955Z,11.47
2018-04-11T04:15:52.164Z,11.47
2018-04-11T04:17:11.867Z,11.49
2018-04-11T04:18:28.828Z,11.44
2018-04-11T04:19:45.961Z,11.36
2018-04-11T04:20:52.347Z,11.29
2018-04-11T04:21:58.506Z,11.28
2018-04-11T04:23:05.641Z,11.22
2018-04-11T04:24:11.867Z,11.27
2018-04-11T04:25:18.065Z,11.31
2018-04-11T04:26:24.339Z,11.36
2018-04-11T04:27:30.619Z,11.38
2018-04-11T04:28:36.843Z,11.36
2018-04-11T04:29:43.128Z,11.44
2018-04-11T04:30:49.461Z,11.32
2018-04-11T04:31:55.652Z,11.20
2018-04-11T04:33:01.657Z,11.25
2018-04-11T04:34:07.886Z,11.19
2018-04-11T04:35:14.059Z,11.20
2018-04-11T04:36:20.385Z,11.26
2018-04-11T04:37:28.176Z,11.36
2018-04-11T04:38:34.396Z,11.38
2018-04-11T04:39:40.680Z,11.41
2018-04-11T04:40:48.135Z,11.44
2018-04-11T04:41:54.424Z,11.42
2018-04-11T04:43:00.814Z,11.43
2018-04-11T04:44:07.083Z,11.40
2018-04-11T04:45:13.077Z,11.33
2018-04-11T04:46:22.130Z,11.23
2018-04-11T04:47:28.296Z,11.18
2018-04-11T04:48:35.264Z,11.10
2018-04-11T04:49:41.783Z,11.12
2018-04-11T04:50:48.704Z,11.14
2018-04-11T04:51:54.772Z,11.08
2018-04-11T04:53:01.009Z,11.04
2018-04-11T04:54:07.359Z,10.99
2018-04-11T04:55:13.623Z,11.02
2018-04-11T04:56:19.919Z,10.97
2018-04-11T04:57:26.272Z,10.93
2018-04-11T04:58:32.606Z,10.97
2018-04-11T04:59:38.879Z,10.98
2018-04-11T05:00:45.235Z,10.97
2018-04-11T05:01:53.732Z,11.06
2018-04-11T05:03:01.463Z,11.22
2018-04-11T05:04:07.751Z,11.23
2018-04-11T05:05:13.838Z,11.34
2018-04-11T05:06:20.109Z,11.30
2018-04-11T05:07:27.094Z,11.40
2018-04-11T05:08:33.412Z,11.37
2018-04-11T05:09:39.400Z,11.44
2018-04-11T05:10:45.718Z,11.51
2018-04-11T05:11:52.034Z,11.43
2018-04-11T05:12:58.920Z,11.38
2018-04-11T05:14:06.082Z,11.39
2018-04-11T05:15:12.716Z,11.42
2018-04-11T05:16:18.871Z,11.48
2018-04-11T05:17:27.681Z,11.55
2018-04-11T05:18:35.014Z,11.63
2018-04-11T05:19:46.565Z,11.68
2018-04-11T05:20:53.574Z,11.71
2018-04-11T05:21:59.977Z,11.80
2018-04-11T05:23:06.249Z,11.79
2018-04-11T05:24:12.235Z,11.79
2018-04-11T05:25:18.260Z,11.80
2018-04-11T05:26:25.341Z,11.77
2018-04-11T05:27:31.543Z,11.82
2018-04-11T05:28:37.600Z,11.84
2018-04-11T05:29:44.003Z,11.91
2018-04-11T05:30:50.968Z,11.96
2018-04-11T05:31:56.938Z,11.94
2018-04-11T05:33:04.910Z,11.94
2018-04-11T05:34:11.516Z,11.96
2018-04-11T05:35:17.550Z,11.92
2018-04-11T05:36:24.555Z,11.85
2018-04-11T05:37:30.795Z,11.91
2018-04-11T05:38:37.127Z,12.06
2018-04-11T05:39:53.527Z,12.09
2018-04-11T05:41:00.332Z,12.27
2018-04-11T05:42:07.151Z,12.25
2018-04-11T05:43:13.385Z,12.32
2018-04-11T05:44:19.566Z,12.37
2018-04-11T05:45:25.954Z,12.39
2018-04-11T05:46:32.210Z,12.39
2018-04-11T05:47:38.823Z,12.44
2018-04-11T05:48:45.056Z,12.57
2018-04-11T05:49:51.388Z,12.73
2018-04-11T05:50:57.694Z,12.62
2018-04-11T05:52:04.902Z,12.58
2018-04-11T05:53:11.129Z,12.60
2018-04-11T05:54:17.800Z,12.58
2018-04-11T05:55:24.073Z,12.67
2018-04-11T05:56:35.194Z,12.69
2018-04-11T05:57:41.478Z,12.83
2018-04-11T05:58:47.702Z,13.02
2018-04-11T05:59:54.030Z,13.20
2018-04-11T06:01:07.180Z,13.26
2018-04-11T06:02:16.555Z,13.13
2018-04-11T06:03:22.876Z,13.26
2018-04-11T06:04:29.295Z,13.41
2018-04-11T06:05:35.723Z,13.50
2018-04-11T06:06:42.108Z,13.56
2018-04-11T06:07:48.902Z,13.68
2018-04-11T06:08:55.270Z,13.66
2018-04-11T06:10:01.636Z,13.67
2018-04-11T06:11:08.007Z,13.78
2018-04-11T06:12:14.403Z,13.88
2018-04-11T06:13:20.751Z,13.96
2018-04-11T06:14:27.646Z,13.90
2018-04-11T06:15:34.231Z,13.90
2018-04-11T06:16:40.569Z,13.86
2018-04-11T06:17:46.884Z,13.96
2018-04-11T06:18:53.275Z,14.02
2018-04-11T06:19:59.710Z,14.07
2018-04-11T06:21:06.158Z,14.05
2018-04-11T06:22:17.332Z,14.00
2018-04-11T06:23:23.949Z,14.05
2018-04-11T06:24:30.282Z,14.19
2018-04-11T06:25:36.605Z,14.09
2018-04-11T06:26:42.719Z,14.21
2018-04-11T06:27:49.104Z,14.24
2018-04-11T06:28:55.443Z,14.31
2018-04-11T06:30:01.783Z,14.09
2018-04-11T06:31:08.071Z,14.16
2018-04-11T06:32:14.347Z,14.04
2018-04-11T06:33:20.754Z,14.03
2018-04-11T06:34:27.074Z,14.13
2018-04-11T06:35:33.492Z,14.27
2018-04-11T06:36:39.846Z,14.32
2018-04-11T06:37:46.112Z,14.37
2018-04-11T06:38:52.371Z,14.45
2018-04-11T06:39:58.932Z,14.49
2018-04-11T06:41:05.282Z,14.56
2018-04-11T06:42:11.703Z,14.57
2018-04-11T06:43:21.828Z,14.63
2018-04-11T06:44:28.604Z,14.56
2018-04-11T06:45:34.539Z,14.65
2018-04-11T06:46:40.968Z,14.74
2018-04-11T06:47:47.330Z,14.77
2018-04-11T06:48:53.628Z,14.80
2018-04-11T06:49:59.938Z,14.82
2018-04-11T06:51:06.156Z,14.92
2018-04-11T06:52:12.385Z,14.96
2018-04-11T06:53:18.659Z,14.84
2018-04-11T06:54:24.992Z,14.77
2018-04-11T06:55:31.405Z,14.73
2018-04-11T06:56:37.746Z,14.70
2018-04-11T06:57:43.914Z,14.80
2018-04-11T06:58:50.110Z,14.72
2018-04-11T06:59:56.208Z,14.78
2018-04-11T07:01:08.724Z,14.83
2018-04-11T07:02:15.230Z,14.89
2018-04-11T07:03:21.522Z,14.99
2018-04-11T07:04:32.679Z,15.07
2018-04-11T07:05:40.482Z,15.14
2018-04-11T07:06:47.027Z,15.13
2018-04-11T07:07:53.322Z,15.21
2018-04-11T07:08:59.664Z,15.08
2018-04-11T07:10:06.742Z,15.07
2018-04-11T07:11:12.959Z,15.00
2018-04-11T07:12:52.540Z,15.10
2018-04-11T07:13:58.883Z,15.16
2018-04-11T07:15:04.810Z,15.24
2018-04-11T07:16:11.181Z,15.22
2018-04-11T07:17:17.617Z,15.23
2018-04-11T07:18:23.903Z,15.29
2018-04-11T07:19:30.208Z,15.34
2018-04-11T07:20:36.616Z,15.31
2018-04-11T07:21:42.939Z,15.39
2018-04-11T07:22:49.282Z,15.45
2018-04-11T07:23:55.548Z,15.47
2018-04-11T07:25:01.655Z,15.53
2018-04-11T07:26:07.420Z,15.57
2018-04-11T07:27:14.053Z,15.66
2018-04-11T07:28:21.756Z,15.78
2018-04-11T07:29:28.121Z,15.78
2018-04-11T07:30:34.335Z,15.77
2018-04-11T07:31:40.672Z,15.75
2018-04-11T07:32:47.022Z,15.73
2018-04-11T07:33:53.267Z,15.77
2018-04-11T07:34:59.496Z,15.88
2018-04-11T07:36:06.326Z,15.87
2018-04-11T07:37:12.667Z,15.83
2018-04-11T07:38:18.941Z,15.86
2018-04-11T07:39:25.308Z,15.78
2018-04-11T07:40:31.560Z,15.78
2018-04-11T07:41:37.802Z,15.81
2018-04-11T07:42:43.783Z,15.86
2018-04-11T07:43:50.803Z,15.83
2018-04-11T07:44:57.121Z,15.88
2018-04-11T07:46:03.339Z,15.91
2018-04-11T07:47:13.220Z,15.94
2018-04-11T07:48:19.202Z,15.84
2018-04-11T07:49:25.770Z,15.83
2018-04-11T07:50:32.031Z,15.82
2018-04-11T07:51:38.270Z,15.83
2018-04-11T07:52:44.383Z,15.87
2018-04-11T07:53:50.873Z,15.91
2018-04-11T07:54:57.081Z,15.96
2018-04-11T07:56:03.296Z,15.97
2018-04-11T07:57:09.550Z,15.99
2018-04-11T07:58:15.847Z,16.07
2018-04-11T07:59:22.144Z,16.04
2018-04-11T08:00:28.703Z,16.16
2018-04-11T08:01:35.079Z,16.20
2018-04-11T08:02:41.405Z,16.27
2018-04-11T08:03:54.714Z,16.34
2018-04-11T08:05:00.734Z,16.32
2018-04-11T08:06:06.737Z,16.19
2018-04-11T08:07:12.969Z,16.19
2018-04-11T08:08:19.314Z,16.22
2018-04-11T08:09:25.639Z,16.20
2018-04-11T08:10:31.708Z,16.19
2018-04-11T08:11:38.048Z,16.24
2018-04-11T08:12:44.357Z,16.34
2018-04-11T08:13:50.645Z,16.40
2018-04-11T08:14:56.731Z,16.49
2018-04-11T08:16:03.071Z,16.62
2018-04-11T08:17:09.367Z,16.67
2018-04-11T08:18:15.611Z,16.67
2018-04-11T08:19:23.054Z,16.63
2018-04-11T08:20:29.013Z,16.50
2018-04-11T08:21:34.989Z,16.43
2018-04-11T08:22:41.247Z,16.31
2018-04-11T08:23:46.531Z,16.26
2018-04-11T08:24:52.841Z,16.22
2018-04-11T08:25:59.531Z,16.19
2018-04-11T08:27:06.290Z,16.22
2018-04-11T08:28:13.178Z,16.30
2018-04-11T08:29:19.207Z,16.30
2018-04-11T08:30:25.503Z,16.31
2018-04-11T08:31:31.638Z,16.30
2018-04-11T08:32:37.721Z,16.25
2018-04-11T08:33:43.978Z,16.27
2018-04-11T08:34:50.852Z,16.26
2018-04-11T08:35:59.108Z,16.29
2018-04-11T08:37:05.450Z,16.32
2018-04-11T08:38:11.745Z,16.48
2018-04-11T08:39:17.968Z,16.56
2018-04-11T08:40:24.148Z,16.60
2018-04-11T08:41:30.373Z,16.75
2018-04-11T08:42:36.811Z,16.97
2018-04-11T08:43:43.125Z,17.14
2018-04-11T08:44:49.435Z,17.27
2018-04-11T08:45:55.737Z,17.37
2018-04-11T08:47:02.041Z,17.41
2018-04-11T08:48:08.251Z,17.30
2018-04-11T08:49:18.152Z,17.34
2018-04-11T08:50:26.101Z,17.33
2018-04-11T08:51:33.194Z,17.44
2018-04-11T08:52:39.451Z,17.54
2018-04-11T08:53:45.865Z,17.64
2018-04-11T08:54:52.192Z,17.63
2018-04-11T08:55:58.479Z,17.64
2018-04-11T08:57:04.802Z,17.78
2018-04-11T08:58:17.939Z,17.83
2018-04-11T08:59:24.174Z,17.96
2018-04-11T09:00:30.457Z,18.03
2018-04-11T09:01:36.818Z,18.06
2018-04-11T09:02:43.104Z,18.10
2018-04-11T09:03:49.418Z,18.14
2018-04-11T09:04:55.655Z,18.09
2018-04-11T09:06:03.139Z,17.98
2018-04-11T09:07:16.084Z,17.91
2018-04-11T09:08:22.102Z,17.84
2018-04-11T09:09:28.680Z,17.68
2018-04-11T09:10:34.966Z,17.48
2018-04-11T09:11:41.379Z,17.41
2018-04-11T09:12:47.579Z,17.39
2018-04-11T09:13:53.955Z,17.37
2018-04-11T09:15:00.245Z,17.30
2018-04-11T09:16:06.549Z,17.30
2018-04-11T09:17:12.819Z,17.30
2018-04-11T09:18:19.054Z,17.40
2018-04-11T09:19:24.991Z,17.28
2018-04-11T09:20:31.312Z,17.25
2018-04-11T09:21:39.510Z,17.32
2018-04-11T09:22:46.992Z,17.27
2018-04-11T09:23:53.806Z,17.29
2018-04-11T09:25:00.106Z,17.34
2018-04-11T09:27:11.411Z,17.33
2018-04-11T09:28:18.412Z,17.38
2018-04-11T09:29:24.591Z,17.37
2018-04-11T09:30:30.867Z,17.40
2018-04-11T09:31:37.143Z,17.39
2018-04-11T09:32:43.480Z,17.41
2018-04-11T09:33:49.754Z,17.45
2018-04-11T09:34:55.901Z,17.49
2018-04-11T09:36:02.241Z,17.54
2018-04-11T09:37:09.055Z,17.49
2018-04-11T09:38:15.884Z,17.42
2018-04-11T09:39:22.136Z,17.31
2018-04-11T09:40:28.382Z,17.31
2018-04-11T09:41:35.168Z,17.44
2018-04-11T09:42:41.419Z,17.44
2018-04-11T09:43:47.941Z,17.40
2018-04-11T09:44:54.315Z,17.41
2018-04-11T09:46:00.798Z,17.40
2018-04-11T09:47:07.897Z,17.51
2018-04-11T09:48:15.251Z,17.54
2018-04-11T09:49:21.509Z,17.54
2018-04-11T09:50:27.967Z,17.51
2018-04-11T09:51:34.241Z,17.32
2018-04-11T09:52:40.706Z,17.38
2018-04-11T09:53:50.147Z,17.49
2018-04-11T09:54:57.120Z,17.58
2018-04-11T09:56:03.151Z,17.60
2018-04-11T09:57:09.370Z,17.67
2018-04-11T09:58:15.711Z,17.64
2018-04-11T09:59:21.997Z,17.51
2018-04-11T10:00:28.287Z,17.35
2018-04-11T10:01:50.320Z,17.36
2018-04-11T10:03:02.760Z,17.41
2018-04-11T10:04:09.051Z,17.44
2018-04-11T10:05:15.372Z,17.47
2018-04-11T10:06:21.679Z,17.45
2018-04-11T10:07:28.397Z,17.44
2018-04-11T10:08:34.683Z,17.48
2018-04-11T10:09:41.019Z,17.47
2018-04-11T10:10:47.355Z,17.45
2018-04-11T10:11:53.732Z,17.51
2018-04-11T10:12:59.903Z,17.52
2018-04-11T10:14:06.149Z,17.55
2018-04-11T10:15:12.366Z,17.58
2018-04-11T10:16:18.602Z,17.57
2018-04-11T10:17:24.882Z,17.55
2018-04-11T10:18:30.863Z,17.60
2018-04-11T10:19:37.082Z,17.61
2018-04-11T10:20:43.438Z,17.66
2018-04-11T10:21:49.501Z,17.69
2018-04-11T10:22:55.615Z,17.76
2018-04-11T10:24:04.059Z,17.81
2018-04-11T10:25:10.228Z,17.79
2018-04-11T10:26:16.186Z,17.74
2018-04-11T10:27:22.507Z,17.72
2018-04-11T10:28:28.858Z,17.76
2018-04-11T10:29:35.205Z,17.70
2018-04-11T10:30:41.481Z,17.72
2018-04-11T10:31:47.821Z,17.63
2018-04-11T10:32:54.115Z,17.67
2018-04-11T10:34:00.444Z,17.71
2018-04-11T10:35:07.211Z,17.69
2018-04-11T10:36:13.222Z,17.73
2018-04-11T10:37:19.533Z,17.80
2018-04-11T10:38:25.837Z,17.74
2018-04-11T10:39:33.232Z,17.66
2018-04-11T10:40:40.752Z,17.63
2018-04-11T10:41:47.068Z,17.59
2018-04-11T10:42:53.364Z,17.62
2018-04-11T10:43:59.662Z,17.62
2018-04-11T10:45:05.860Z,17.68
2018-04-11T10:46:12.134Z,17.74
2018-04-11T10:47:18.580Z,17.73
2018-04-11T10:48:24.795Z,17.63
2018-04-11T10:49:31.023Z,17.57
2018-04-11T10:50:37.995Z,17.52
2018-04-11T10:51:45.139Z,17.55
2018-04-11T10:52:51.465Z,17.49
2018-04-11T10:53:57.640Z,17.49
2018-04-11T10:55:05.393Z,17.47
2018-04-11T10:56:12.367Z,17.44
2018-04-11T10:57:18.699Z,17.45
2018-04-11T10:58:24.997Z,17.49
2018-04-11T10:59:31.274Z,17.47
2018-04-11T11:00:37.662Z,17.49
2018-04-11T11:01:43.705Z,17.50
2018-04-11T11:02:50.051Z,17.48
2018-04-11T11:03:56.319Z,17.41
2018-04-11T11:05:02.552Z,17.41
2018-04-11T11:06:08.867Z,17.40
2018-04-11T11:07:15.626Z,17.33
2018-04-11T11:08:21.892Z,17.33
2018-04-11T11:09:28.403Z,17.35
2018-04-11T11:10:34.460Z,17.39
2018-04-11T11:11:40.718Z,17.46
2018-04-11T11:12:46.719Z,17.50
2018-04-11T11:13:52.946Z,17.57
2018-04-11T11:14:59.307Z,17.59
2018-04-11T11:16:18.850Z,17.59
2018-04-11T11:17:24.798Z,17.61
2018-04-11T11:18:30.767Z,17.68
2018-04-11T11:19:36.096Z,17.68
2018-04-11T11:20:53.207Z,17.66
2018-04-11T11:21:59.211Z,17.72
2018-04-11T11:23:05.467Z,17.71
2018-04-11T11:24:11.742Z,17.69
2018-04-11T11:25:17.716Z,17.60
2018-04-11T11:26:24.551Z,17.59
2018-04-11T11:27:30.770Z,17.62
2018-04-11T11:28:36.791Z,17.67
2018-04-11T11:29:43.002Z,17.61
2018-04-11T11:30:49.324Z,17.61
2018-04-11T11:31:55.626Z,17.64
2018-04-11T11:33:02.098Z,17.67
2018-04-11T11:34:08.122Z,17.66
2018-04-11T11:35:14.138Z,17.68
2018-04-11T11:36:20.460Z,17.74
2018-04-11T11:37:29.251Z,17.80
2018-04-11T11:38:35.519Z,17.82
2018-04-11T11:39:41.523Z,17.81
2018-04-11T11:40:48.103Z,17.88
2018-04-11T11:41:54.897Z,17.89
2018-04-11T11:43:03.871Z,17.95
2018-04-11T11:44:09.804Z,17.94
2018-04-11T11:45:16.081Z,17.93
2018-04-11T11:46:22.399Z,17.88
2018-04-11T11:47:28.683Z,17.85
2018-04-11T11:48:35.787Z,17.92
2018-04-11T11:49:43.270Z,17.95
2018-04-11T11:50:50.065Z,18.01
2018-04-11T11:51:57.452Z,18.09
2018-04-11T11:53:05.978Z,18.14
2018-04-11T11:54:14.694Z,18.14
2018-04-11T11:55:22.516Z,18.15
2018-04-11T11:56:31.025Z,17.92
2018-04-11T11:57:38.049Z,17.88
2018-04-11T11:58:44.902Z,17.74
2018-04-11T11:59:51.724Z,17.84
2018-04-11T12:01:00.316Z,17.96
2018-04-11T12:02:07.745Z,18.06
2018-04-11T12:03:15.212Z,18.08
2018-04-11T12:04:21.562Z,18.14
2018-04-11T12:05:28.577Z,18.20
2018-04-11T12:06:35.809Z,18.27
2018-04-11T12:07:42.522Z,18.34
2018-04-11T12:08:49.196Z,18.33
2018-04-11T12:09:56.795Z,18.25
2018-04-11T12:11:03.310Z,18.26
2018-04-11T12:12:10.543Z,18.34
2018-04-11T12:13:18.972Z,18.35
2018-04-11T12:14:26.012Z,18.37
2018-04-11T12:15:33.163Z,18.45
2018-04-11T12:16:39.874Z,18.53
2018-04-11T12:17:46.401Z,18.58
2018-04-11T12:18:53.130Z,18.61
2018-04-11T12:20:00.871Z,18.67
2018-04-11T12:21:07.666Z,18.71
2018-04-11T12:22:17.867Z,18.73
2018-04-11T12:23:26.555Z,18.79
2018-04-11T12:24:35.912Z,18.82
2018-04-11T12:25:43.072Z,18.95
2018-04-11T12:26:49.758Z,19.02
2018-04-11T12:27:56.411Z,19.09
2018-04-11T12:29:02.782Z,19.17
2018-04-11T12:30:11.074Z,19.23
2018-04-11T12:31:18.176Z,19.12
2018-04-11T12:32:24.830Z,19.19
2018-04-11T12:33:32.064Z,19.17
2018-04-11T12:34:39.400Z,19.27
2018-04-11T12:35:47.861Z,19.31
2018-04-11T12:36:54.993Z,19.35
2018-04-11T12:38:02.323Z,19.42
2018-04-11T12:39:10.291Z,19.58
2018-04-11T12:40:21.058Z,19.56
2018-04-11T12:41:27.623Z,19.60
2018-04-11T12:42:34.375Z,19.64
2018-04-11T12:43:41.193Z,19.58
2018-04-11T12:44:48.391Z,19.72
2018-04-11T12:45:54.628Z,19.73
2018-04-11T12:47:03.349Z,19.71
2018-04-11T12:48:11.355Z,19.56
2018-04-11T12:49:18.740Z,19.45
2018-04-11T12:50:26.818Z,19.40
2018-04-11T12:51:33.831Z,19.36
2018-04-11T12:52:40.613Z,19.16
2018-04-11T12:53:47.067Z,19.08
2018-04-11T12:54:53.997Z,19.03
2018-04-11T12:56:01.120Z,19.00
2018-04-11T12:57:07.952Z,18.99
2018-04-11T12:58:14.397Z,18.96
2018-04-11T12:59:22.279Z,18.95
2018-04-11T13:00:29.445Z,18.87
2018-04-11T13:01:36.243Z,18.86
2018-04-11T13:02:42.618Z,18.88
2018-04-11T13:03:48.967Z,18.91
2018-04-11T13:04:55.305Z,18.93
2018-04-11T13:06:01.592Z,18.94
2018-04-11T13:07:09.380Z,19.01
2018-04-11T13:08:15.878Z,19.07
2018-04-11T13:09:22.787Z,19.11
2018-04-11T13:10:29.741Z,19.16
2018-04-11T13:11:36.278Z,19.21
2018-04-11T13:12:47.076Z,19.31
2018-04-11T13:13:53.846Z,19.36
2018-04-11T13:15:00.887Z,19.38
2018-04-11T13:16:07.198Z,19.39
2018-04-11T13:17:14.946Z,19.36
2018-04-11T13:18:24.042Z,19.42
2018-04-11T13:19:31.892Z,19.42
2018-04-11T13:20:41.489Z,19.46
2018-04-11T13:21:49.211Z,19.46
2018-04-11T13:22:56.447Z,19.41
2018-04-11T13:24:03.865Z,19.24
2018-04-11T13:25:11.370Z,19.14
2018-04-11T13:26:17.984Z,19.16
2018-04-11T13:27:24.773Z,19.06
2018-04-11T13:28:33.061Z,18.96
2018-04-11T13:29:41.199Z,18.92
2018-04-11T13:30:48.423Z,18.95
2018-04-11T13:31:57.799Z,18.91
2018-04-11T13:33:06.317Z,18.85
2018-04-11T13:34:13.082Z,18.91
2018-04-11T13:35:20.492Z,18.96
2018-04-11T13:36:27.044Z,19.06
2018-04-11T13:37:33.453Z,19.23
2018-04-11T13:38:40.378Z,19.36
2018-04-11T13:39:46.786Z,19.54
2018-04-11T13:40:53.186Z,19.66
2018-04-11T13:41:59.273Z,19.80
2018-04-11T13:43:05.548Z,19.82
2018-04-11T13:44:12.095Z,19.74
2018-04-11T13:45:18.479Z,19.69
2018-04-11T13:46:24.628Z,19.67
2018-04-11T13:47:31.043Z,19.54
2018-04-11T13:48:37.458Z,19.47
2018-04-11T13:49:43.847Z,19.58
2018-04-11T13:50:50.168Z,19.77
2018-04-11T13:51:56.515Z,20.05
2018-04-11T13:53:02.585Z,20.19
2018-04-11T13:54:09.024Z,20.25
2018-04-11T13:55:15.424Z,20.29
2018-04-11T13:56:21.635Z,20.30
2018-04-11T13:57:27.778Z,20.35
2018-04-11T13:58:34.158Z,20.23
2018-04-11T13:59:40.565Z,20.27
2018-04-11T14:00:46.954Z,20.41
2018-04-11T14:01:53.107Z,20.60
2018-04-11T14:02:59.490Z,20.59
2018-04-11T14:04:05.918Z,20.67
2018-04-11T14:05:12.903Z,20.79
2018-04-11T14:06:19.050Z,20.73
2018-04-11T14:07:26.971Z,20.62
2018-04-11T14:08:34.895Z,20.58
2018-04-11T14:09:40.922Z,20.56
2018-04-11T14:10:47.033Z,20.56
2018-04-11T14:11:53.507Z,20.63
2018-04-11T14:12:59.570Z,20.75
2018-04-11T14:14:06.012Z,20.72
2018-04-11T14:15:12.307Z,20.69
2018-04-11T14:16:18.386Z,20.60
2018-04-11T14:17:24.529Z,20.56
2018-04-11T14:18:30.915Z,20.52
2018-04-11T14:19:37.249Z,20.57
2018-04-11T14:20:43.562Z,20.47
2018-04-11T14:21:50.007Z,20.43